sensor_id;sensor_type;location;lat;lon;timestamp;pressure;altitude;pressure_sealevel;temperature;humidity
76378;BME280;65200;49.500;8.654;2023-11-22T00:00:58;101026.00;;;8.51;73.69
76378;BME280;65200;49.500;8.654;2023-11-22T00:03:24;101023.34;;;8.59;75.91
76378;BME280;65200;49.500;8.654;2023-11-22T00:05:51;101018.31;;;8.48;73.94
76378;BME280;65200;49.500;8.654;2023-11-22T00:08:17;101026.53;;;8.55;75.33
76378;BME280;65200;49.500;8.654;2023-11-22T00:10:44;101028.00;;;8.49;76.28
76378;BME280;65200;49.500;8.654;2023-11-22T00:13:10;101032.06;;;8.61;75.17
76378;BME280;65200;49.500;8.654;2023-11-22T00:15:38;101042.06;;;8.25;74.69
76378;BME280;65200;49.500;8.654;2023-11-22T00:18:05;101047.25;;;8.27;74.38
76378;BME280;65200;49.500;8.654;2023-11-22T00:20:31;101051.91;;;8.25;73.94
76378;BME280;65200;49.500;8.654;2023-11-22T00:22:58;101062.88;;;8.22;74.25
76378;BME280;65200;49.500;8.654;2023-11-22T00:25:25;101050.81;;;8.18;73.88
76378;BME280;65200;49.500;8.654;2023-11-22T00:27:51;101061.00;;;8.14;73.30
76378;BME280;65200;49.500;8.654;2023-11-22T00:30:18;101061.47;;;8.27;73.54
76378;BME280;65200;49.500;8.654;2023-11-22T00:32:47;101062.34;;;8.18;74.34
76378;BME280;65200;49.500;8.654;2023-11-22T00:35:14;101071.91;;;8.21;75.15
76378;BME280;65200;49.500;8.654;2023-11-22T00:37:40;101069.72;;;8.42;73.97
76378;BME280;65200;49.500;8.654;2023-11-22T00:40:07;101078.50;;;8.60;75.25
76378;BME280;65200;49.500;8.654;2023-11-22T00:42:37;101078.06;;;8.21;75.48
76378;BME280;65200;49.500;8.654;2023-11-22T00:45:05;101091.50;;;7.86;75.04
76378;BME280;65200;49.500;8.654;2023-11-22T00:47:32;101080.34;;;8.16;74.89
76378;BME280;65200;49.500;8.654;2023-11-22T00:50:00;101078.91;;;7.96;75.10
76378;BME280;65200;49.500;8.654;2023-11-22T00:52:29;101092.31;;;8.04;74.16
76378;BME280;65200;49.500;8.654;2023-11-22T00:54:55;101090.06;;;7.74;75.23
76378;BME280;65200;49.500;8.654;2023-11-22T00:57:22;101098.47;;;7.62;75.75
76378;BME280;65200;49.500;8.654;2023-11-22T00:59:48;101103.16;;;7.68;75.78
76378;BME280;65200;49.500;8.654;2023-11-22T01:02:15;101101.03;;;7.71;75.14
76378;BME280;65200;49.500;8.654;2023-11-22T01:04:41;101110.13;;;7.61;75.68
76378;BME280;65200;49.500;8.654;2023-11-22T01:07:09;101112.66;;;7.62;74.91
76378;BME280;65200;49.500;8.654;2023-11-22T01:09:35;101102.56;;;7.56;75.74
76378;BME280;65200;49.500;8.654;2023-11-22T01:12:02;101104.19;;;7.49;75.51
76378;BME280;65200;49.500;8.654;2023-11-22T01:14:28;101102.09;;;7.43;75.00
76378;BME280;65200;49.500;8.654;2023-11-22T01:16:55;101102.72;;;7.55;75.16
76378;BME280;65200;49.500;8.654;2023-11-22T01:19:21;101109.84;;;7.46;74.94
76378;BME280;65200;49.500;8.654;2023-11-22T01:21:48;101104.66;;;7.45;73.77
76378;BME280;65200;49.500;8.654;2023-11-22T01:24:16;101115.81;;;7.48;73.85
76378;BME280;65200;49.500;8.654;2023-11-22T01:26:42;101096.53;;;7.37;73.65
76378;BME280;65200;49.500;8.654;2023-11-22T01:29:09;101116.84;;;7.47;72.17
76378;BME280;65200;49.500;8.654;2023-11-22T01:31:37;101112.78;;;7.43;72.34
76378;BME280;65200;49.500;8.654;2023-11-22T01:34:03;101113.31;;;7.29;72.50
76378;BME280;65200;49.500;8.654;2023-11-22T01:36:30;101117.69;;;7.48;72.38
76378;BME280;65200;49.500;8.654;2023-11-22T01:38:57;101115.97;;;7.29;71.99
76378;BME280;65200;49.500;8.654;2023-11-22T01:41:25;101118.72;;;7.37;72.01
76378;BME280;65200;49.500;8.654;2023-11-22T01:43:51;101121.44;;;7.10;71.76
76378;BME280;65200;49.500;8.654;2023-11-22T01:46:22;101114.53;;;7.17;72.18
76378;BME280;65200;49.500;8.654;2023-11-22T01:48:49;101123.81;;;7.31;70.78
76378;BME280;65200;49.500;8.654;2023-11-22T01:51:17;101127.25;;;7.23;70.92
76378;BME280;65200;49.500;8.654;2023-11-22T01:53:44;101130.88;;;7.22;70.72
76378;BME280;65200;49.500;8.654;2023-11-22T01:56:11;101131.91;;;7.39;71.77
76378;BME280;65200;49.500;8.654;2023-11-22T01:58:38;101137.31;;;7.29;70.91
76378;BME280;65200;49.500;8.654;2023-11-22T02:01:05;101141.19;;;7.17;71.15
76378;BME280;65200;49.500;8.654;2023-11-22T02:03:32;101145.56;;;6.81;71.94
76378;BME280;65200;49.500;8.654;2023-11-22T02:05:58;101148.13;;;6.73;71.35
76378;BME280;65200;49.500;8.654;2023-11-22T02:08:25;101150.00;;;6.54;71.28
76378;BME280;65200;49.500;8.654;2023-11-22T02:11:00;101144.22;;;6.68;70.28
76378;BME280;65200;49.500;8.654;2023-11-22T02:13:28;101143.16;;;6.51;69.74
76378;BME280;65200;49.500;8.654;2023-11-22T02:15:56;101154.94;;;6.58;68.61
76378;BME280;65200;49.500;8.654;2023-11-22T02:18:25;101158.63;;;6.75;69.10
76378;BME280;65200;49.500;8.654;2023-11-22T02:20:52;101159.72;;;6.82;68.34
76378;BME280;65200;49.500;8.654;2023-11-22T02:23:19;101167.66;;;6.64;69.16
76378;BME280;65200;49.500;8.654;2023-11-22T02:25:47;101173.22;;;6.71;68.33
76378;BME280;65200;49.500;8.654;2023-11-22T02:28:14;101188.69;;;6.58;68.06
76378;BME280;65200;49.500;8.654;2023-11-22T02:30:41;101196.34;;;6.70;67.37
76378;BME280;65200;49.500;8.654;2023-11-22T02:33:08;101205.13;;;6.53;68.42
76378;BME280;65200;49.500;8.654;2023-11-22T02:35:35;101203.13;;;6.55;68.14
76378;BME280;65200;49.500;8.654;2023-11-22T02:38:01;101204.75;;;6.29;68.95
76378;BME280;65200;49.500;8.654;2023-11-22T02:40:29;101210.19;;;6.28;68.74
76378;BME280;65200;49.500;8.654;2023-11-22T02:42:56;101218.31;;;6.36;69.25
76378;BME280;65200;49.500;8.654;2023-11-22T02:45:26;101222.66;;;6.27;68.81
76378;BME280;65200;49.500;8.654;2023-11-22T02:47:52;101228.53;;;6.21;69.36
76378;BME280;65200;49.500;8.654;2023-11-22T02:50:19;101219.16;;;6.27;68.34
76378;BME280;65200;49.500;8.654;2023-11-22T02:52:45;101220.97;;;6.17;68.80
76378;BME280;65200;49.500;8.654;2023-11-22T02:55:11;101224.34;;;6.09;68.05
76378;BME280;65200;49.500;8.654;2023-11-22T02:57:41;101215.66;;;6.17;68.77
76378;BME280;65200;49.500;8.654;2023-11-22T03:00:09;101221.53;;;6.20;68.27
76378;BME280;65200;49.500;8.654;2023-11-22T03:02:38;101217.47;;;6.45;67.89
76378;BME280;65200;49.500;8.654;2023-11-22T03:05:07;101219.44;;;6.24;67.32
76378;BME280;65200;49.500;8.654;2023-11-22T03:07:34;101220.31;;;6.24;68.22
76378;BME280;65200;49.500;8.654;2023-11-22T03:10:01;101207.13;;;6.04;67.78
76378;BME280;65200;49.500;8.654;2023-11-22T03:12:36;101212.88;;;6.09;67.78
76378;BME280;65200;49.500;8.654;2023-11-22T03:15:06;101212.88;;;6.09;67.72
76378;BME280;65200;49.500;8.654;2023-11-22T03:17:32;101212.16;;;5.97;68.19
76378;BME280;65200;49.500;8.654;2023-11-22T03:19:59;101213.31;;;5.95;68.67
76378;BME280;65200;49.500;8.654;2023-11-22T03:22:25;101224.31;;;5.81;68.35
76378;BME280;65200;49.500;8.654;2023-11-22T03:24:52;101230.47;;;5.81;68.15
76378;BME280;65200;49.500;8.654;2023-11-22T03:27:19;101235.00;;;6.00;68.53
76378;BME280;65200;49.500;8.654;2023-11-22T03:29:46;101237.88;;;5.78;68.66
76378;BME280;65200;49.500;8.654;2023-11-22T03:32:14;101251.47;;;5.75;67.96
76378;BME280;65200;49.500;8.654;2023-11-22T03:34:41;101258.25;;;5.88;67.79
76378;BME280;65200;49.500;8.654;2023-11-22T03:37:07;101260.75;;;5.90;68.37
76378;BME280;65200;49.500;8.654;2023-11-22T03:39:34;101262.44;;;6.00;67.40
76378;BME280;65200;49.500;8.654;2023-11-22T03:42:00;101262.47;;;6.10;67.37
76378;BME280;65200;49.500;8.654;2023-11-22T03:44:26;101276.88;;;6.07;67.49
76378;BME280;65200;49.500;8.654;2023-11-22T03:46:53;101280.66;;;5.95;67.52
76378;BME280;65200;49.500;8.654;2023-11-22T03:49:21;101285.13;;;6.04;67.95
76378;BME280;65200;49.500;8.654;2023-11-22T03:51:48;101291.19;;;6.16;67.68
76378;BME280;65200;49.500;8.654;2023-11-22T03:54:14;101287.81;;;6.14;66.67
76378;BME280;65200;49.500;8.654;2023-11-22T03:56:41;101286.69;;;6.16;66.91
76378;BME280;65200;49.500;8.654;2023-11-22T03:59:07;101294.44;;;5.70;67.11
76378;BME280;65200;49.500;8.654;2023-11-22T04:01:34;101299.19;;;5.76;67.48
76378;BME280;65200;49.500;8.654;2023-11-22T04:04:00;101298.09;;;5.79;67.90
76378;BME280;65200;49.500;8.654;2023-11-22T04:06:28;101299.53;;;5.43;68.44
76378;BME280;65200;49.500;8.654;2023-11-22T04:08:54;101313.56;;;5.54;68.21
76378;BME280;65200;49.500;8.654;2023-11-22T04:11:21;101314.34;;;5.76;69.18
76378;BME280;65200;49.500;8.654;2023-11-22T04:13:47;101322.84;;;5.70;67.87
76378;BME280;65200;49.500;8.654;2023-11-22T04:16:14;101308.94;;;5.87;68.72
76378;BME280;65200;49.500;8.654;2023-11-22T04:18:41;101320.69;;;5.94;67.73
76378;BME280;65200;49.500;8.654;2023-11-22T04:21:08;101331.03;;;5.87;67.48
76378;BME280;65200;49.500;8.654;2023-11-22T04:23:36;101334.47;;;5.78;68.13
76378;BME280;65200;49.500;8.654;2023-11-22T04:26:02;101346.06;;;5.68;67.90
76378;BME280;65200;49.500;8.654;2023-11-22T04:28:29;101361.66;;;5.51;68.45
76378;BME280;65200;49.500;8.654;2023-11-22T04:30:56;101362.66;;;5.50;68.12
76378;BME280;65200;49.500;8.654;2023-11-22T04:33:23;101368.78;;;5.41;69.05
76378;BME280;65200;49.500;8.654;2023-11-22T04:35:50;101373.06;;;5.33;69.12
76378;BME280;65200;49.500;8.654;2023-11-22T04:38:17;101383.66;;;5.23;68.52
76378;BME280;65200;49.500;8.654;2023-11-22T04:40:45;101385.59;;;5.21;69.61
76378;BME280;65200;49.500;8.654;2023-11-22T04:43:11;101386.69;;;5.19;68.79
76378;BME280;65200;49.500;8.654;2023-11-22T04:45:38;101383.56;;;5.34;69.23
76378;BME280;65200;49.500;8.654;2023-11-22T04:48:05;101380.63;;;5.37;68.31
76378;BME280;65200;49.500;8.654;2023-11-22T04:50:32;101377.81;;;5.29;69.08
76378;BME280;65200;49.500;8.654;2023-11-22T04:52:59;101369.84;;;5.29;67.67
76378;BME280;65200;49.500;8.654;2023-11-22T04:55:27;101378.78;;;5.58;67.49
76378;BME280;65200;49.500;8.654;2023-11-22T04:57:55;101374.63;;;5.66;67.34
76378;BME280;65200;49.500;8.654;2023-11-22T05:00:21;101392.94;;;5.59;67.09
76378;BME280;65200;49.500;8.654;2023-11-22T05:02:48;101391.91;;;5.50;68.02
76378;BME280;65200;49.500;8.654;2023-11-22T05:05:14;101390.03;;;5.72;67.34
76378;BME280;65200;49.500;8.654;2023-11-22T05:07:41;101393.09;;;5.67;66.45
76378;BME280;65200;49.500;8.654;2023-11-22T05:10:09;101403.50;;;5.80;65.79
76378;BME280;65200;49.500;8.654;2023-11-22T05:12:35;101398.66;;;5.34;65.86
76378;BME280;65200;49.500;8.654;2023-11-22T05:15:04;101400.88;;;5.49;66.39
76378;BME280;65200;49.500;8.654;2023-11-22T05:17:30;101404.72;;;5.15;65.60
76378;BME280;65200;49.500;8.654;2023-11-22T05:19:58;101394.09;;;5.15;64.99
76378;BME280;65200;49.500;8.654;2023-11-22T05:22:24;101406.31;;;5.27;65.90
76378;BME280;65200;49.500;8.654;2023-11-22T05:24:51;101411.03;;;5.24;64.91
76378;BME280;65200;49.500;8.654;2023-11-22T05:27:17;101408.03;;;5.28;63.73
76378;BME280;65200;49.500;8.654;2023-11-22T05:29:44;101414.16;;;5.29;63.58
76378;BME280;65200;49.500;8.654;2023-11-22T05:32:12;101408.66;;;5.41;63.48
76378;BME280;65200;49.500;8.654;2023-11-22T05:34:38;101417.53;;;5.31;64.22
76378;BME280;65200;49.500;8.654;2023-11-22T05:37:06;101424.06;;;5.47;64.42
76378;BME280;65200;49.500;8.654;2023-11-22T05:39:32;101439.31;;;5.45;63.34
76378;BME280;65200;49.500;8.654;2023-11-22T05:41:58;101441.28;;;5.53;62.64
76378;BME280;65200;49.500;8.654;2023-11-22T05:44:25;101441.31;;;5.32;63.89
76378;BME280;65200;49.500;8.654;2023-11-22T05:46:52;101447.94;;;4.97;63.55
76378;BME280;65200;49.500;8.654;2023-11-22T05:49:20;101444.69;;;4.62;64.03
76378;BME280;65200;49.500;8.654;2023-11-22T05:51:47;101451.59;;;4.53;64.30
76378;BME280;65200;49.500;8.654;2023-11-22T05:54:13;101457.16;;;4.50;66.26
76378;BME280;65200;49.500;8.654;2023-11-22T05:56:41;101469.38;;;4.73;65.21
76378;BME280;65200;49.500;8.654;2023-11-22T05:59:08;101469.31;;;4.95;64.84
76378;BME280;65200;49.500;8.654;2023-11-22T06:01:34;101467.72;;;5.24;64.49
76378;BME280;65200;49.500;8.654;2023-11-22T06:04:01;101463.91;;;5.38;63.77
76378;BME280;65200;49.500;8.654;2023-11-22T06:06:29;101466.59;;;5.27;63.46
76378;BME280;65200;49.500;8.654;2023-11-22T06:08:55;101463.56;;;5.31;64.88
76378;BME280;65200;49.500;8.654;2023-11-22T06:11:22;101459.59;;;5.26;64.24
76378;BME280;65200;49.500;8.654;2023-11-22T06:13:50;101457.22;;;5.02;64.65
76378;BME280;65200;49.500;8.654;2023-11-22T06:16:17;101458.16;;;5.01;64.28
76378;BME280;65200;49.500;8.654;2023-11-22T06:18:43;101466.84;;;5.03;63.78
76378;BME280;65200;49.500;8.654;2023-11-22T06:21:10;101464.19;;;5.03;64.43
76378;BME280;65200;49.500;8.654;2023-11-22T06:23:38;101477.66;;;4.91;64.76
76378;BME280;65200;49.500;8.654;2023-11-22T06:26:05;101482.00;;;4.60;66.05
76378;BME280;65200;49.500;8.654;2023-11-22T06:28:32;101495.28;;;4.60;65.38
76378;BME280;65200;49.500;8.654;2023-11-22T06:31:00;101494.75;;;4.66;64.22
76378;BME280;65200;49.500;8.654;2023-11-22T06:33:26;101502.75;;;4.55;64.45
76378;BME280;65200;49.500;8.654;2023-11-22T06:35:52;101513.72;;;4.51;64.15
76378;BME280;65200;49.500;8.654;2023-11-22T06:38:19;101526.28;;;4.60;65.50
76378;BME280;65200;49.500;8.654;2023-11-22T06:40:46;101520.38;;;4.45;64.60
76378;BME280;65200;49.500;8.654;2023-11-22T06:43:13;101521.13;;;4.47;65.97
76378;BME280;65200;49.500;8.654;2023-11-22T06:45:39;101517.13;;;4.42;65.35
76378;BME280;65200;49.500;8.654;2023-11-22T06:48:06;101527.03;;;4.40;64.19
76378;BME280;65200;49.500;8.654;2023-11-22T06:50:33;101526.81;;;4.20;65.14
76378;BME280;65200;49.500;8.654;2023-11-22T06:53:00;101526.19;;;4.17;64.71
76378;BME280;65200;49.500;8.654;2023-11-22T06:55:28;101529.91;;;3.92;66.29
76378;BME280;65200;49.500;8.654;2023-11-22T06:57:57;101532.13;;;4.09;66.02
76378;BME280;65200;49.500;8.654;2023-11-22T07:00:24;101538.13;;;4.00;65.69
76378;BME280;65200;49.500;8.654;2023-11-22T07:02:52;101534.97;;;3.95;65.51
76378;BME280;65200;49.500;8.654;2023-11-22T07:05:19;101541.50;;;3.91;64.61
76378;BME280;65200;49.500;8.654;2023-11-22T07:07:45;101541.63;;;3.90;65.04
76378;BME280;65200;49.500;8.654;2023-11-22T07:10:13;101538.38;;;4.19;65.10
76378;BME280;65200;49.500;8.654;2023-11-22T07:12:40;101540.16;;;4.52;65.36
76378;BME280;65200;49.500;8.654;2023-11-22T07:15:10;101542.31;;;4.69;64.08
76378;BME280;65200;49.500;8.654;2023-11-22T07:17:36;101553.16;;;4.77;62.82
76378;BME280;65200;49.500;8.654;2023-11-22T07:20:05;101562.31;;;4.84;61.95
76378;BME280;65200;49.500;8.654;2023-11-22T07:22:34;101572.47;;;4.79;62.27
76378;BME280;65200;49.500;8.654;2023-11-22T07:25:01;101567.19;;;4.68;63.59
76378;BME280;65200;49.500;8.654;2023-11-22T07:27:28;101559.47;;;4.32;63.03
76378;BME280;65200;49.500;8.654;2023-11-22T07:29:56;101566.22;;;4.14;64.40
76378;BME280;65200;49.500;8.654;2023-11-22T07:32:24;101566.34;;;4.01;63.89
76378;BME280;65200;49.500;8.654;2023-11-22T07:34:50;101573.44;;;3.90;65.50
76378;BME280;65200;49.500;8.654;2023-11-22T07:37:21;101568.72;;;3.82;65.75
76378;BME280;65200;49.500;8.654;2023-11-22T07:39:47;101558.84;;;3.95;65.08
76378;BME280;65200;49.500;8.654;2023-11-22T07:42:15;101557.06;;;4.07;64.75
76378;BME280;65200;49.500;8.654;2023-11-22T07:44:41;101565.13;;;4.16;64.76
76378;BME280;65200;49.500;8.654;2023-11-22T07:47:08;101560.81;;;4.15;62.93
76378;BME280;65200;49.500;8.654;2023-11-22T07:49:38;101563.09;;;4.20;63.13
76378;BME280;65200;49.500;8.654;2023-11-22T07:52:05;101567.09;;;4.14;63.49
76378;BME280;65200;49.500;8.654;2023-11-22T07:54:32;101561.66;;;4.16;64.58
76378;BME280;65200;49.500;8.654;2023-11-22T07:56:58;101569.63;;;4.16;64.63
76378;BME280;65200;49.500;8.654;2023-11-22T07:59:24;101571.53;;;4.14;64.58
76378;BME280;65200;49.500;8.654;2023-11-22T08:01:51;101574.81;;;4.29;65.19
76378;BME280;65200;49.500;8.654;2023-11-22T08:04:18;101568.63;;;4.39;64.46
76378;BME280;65200;49.500;8.654;2023-11-22T08:06:46;101575.84;;;4.59;63.87
76378;BME280;65200;49.500;8.654;2023-11-22T08:09:14;101571.97;;;4.74;62.90
76378;BME280;65200;49.500;8.654;2023-11-22T08:11:41;101568.56;;;4.83;63.30
76378;BME280;65200;49.500;8.654;2023-11-22T08:14:08;101568.94;;;4.79;62.19
76378;BME280;65200;49.500;8.654;2023-11-22T08:16:34;101568.34;;;4.75;61.26
76378;BME280;65200;49.500;8.654;2023-11-22T08:19:03;101565.84;;;4.63;63.76
76378;BME280;65200;49.500;8.654;2023-11-22T08:21:30;101564.28;;;4.60;62.50
76378;BME280;65200;49.500;8.654;2023-11-22T08:23:59;101576.22;;;4.66;61.53
76378;BME280;65200;49.500;8.654;2023-11-22T08:26:25;101567.78;;;4.61;63.43
76378;BME280;65200;49.500;8.654;2023-11-22T08:28:52;101568.78;;;4.49;64.24
76378;BME280;65200;49.500;8.654;2023-11-22T08:31:18;101563.78;;;4.66;64.61
76378;BME280;65200;49.500;8.654;2023-11-22T08:33:45;101574.28;;;4.68;63.49
76378;BME280;65200;49.500;8.654;2023-11-22T08:36:12;101580.66;;;4.65;62.17
76378;BME280;65200;49.500;8.654;2023-11-22T08:38:38;101582.34;;;4.77;63.35
76378;BME280;65200;49.500;8.654;2023-11-22T08:41:07;101579.31;;;4.82;61.68
76378;BME280;65200;49.500;8.654;2023-11-22T08:43:38;101581.88;;;4.72;62.82
76378;BME280;65200;49.500;8.654;2023-11-22T08:46:05;101583.22;;;4.67;62.67
76378;BME280;65200;49.500;8.654;2023-11-22T08:48:32;101586.59;;;4.69;62.24
76378;BME280;65200;49.500;8.654;2023-11-22T08:50:58;101586.69;;;4.78;61.68
76378;BME280;65200;49.500;8.654;2023-11-22T08:53:26;101593.19;;;4.85;62.38
76378;BME280;65200;49.500;8.654;2023-11-22T08:55:52;101594.13;;;5.06;62.03
76378;BME280;65200;49.500;8.654;2023-11-22T08:58:22;101578.72;;;5.21;62.85
76378;BME280;65200;49.500;8.654;2023-11-22T09:00:49;101588.91;;;5.47;62.15
76378;BME280;65200;49.500;8.654;2023-11-22T09:03:16;101580.28;;;5.55;61.83
76378;BME280;65200;49.500;8.654;2023-11-22T09:05:42;101585.06;;;5.61;60.80
76378;BME280;65200;49.500;8.654;2023-11-22T09:08:09;101584.31;;;5.70;60.20
76378;BME280;65200;49.500;8.654;2023-11-22T09:10:38;101582.44;;;5.82;57.30
76378;BME280;65200;49.500;8.654;2023-11-22T09:13:05;101584.16;;;5.83;60.59
76378;BME280;65200;49.500;8.654;2023-11-22T09:15:33;101589.97;;;6.18;58.05
76378;BME280;65200;49.500;8.654;2023-11-22T09:18:00;101593.28;;;6.10;56.79
76378;BME280;65200;49.500;8.654;2023-11-22T09:20:27;101599.75;;;6.17;58.33
76378;BME280;65200;49.500;8.654;2023-11-22T09:22:54;101606.78;;;5.98;57.66
76378;BME280;65200;49.500;8.654;2023-11-22T09:25:22;101613.09;;;5.97;58.18
76378;BME280;65200;49.500;8.654;2023-11-22T09:27:49;101616.19;;;6.02;58.88
76378;BME280;65200;49.500;8.654;2023-11-22T09:30:19;101614.47;;;6.21;58.58
76378;BME280;65200;49.500;8.654;2023-11-22T09:32:58;101613.47;;;6.43;56.12
76378;BME280;65200;49.500;8.654;2023-11-22T09:35:25;101607.41;;;6.31;56.94
76378;BME280;65200;49.500;8.654;2023-11-22T09:37:52;101608.53;;;6.29;57.08
76378;BME280;65200;49.500;8.654;2023-11-22T09:40:19;101600.03;;;6.14;58.38
76378;BME280;65200;49.500;8.654;2023-11-22T09:42:47;101598.00;;;6.07;58.03
76378;BME280;65200;49.500;8.654;2023-11-22T09:45:16;101610.94;;;6.41;57.10
76378;BME280;65200;49.500;8.654;2023-11-22T09:47:44;101614.50;;;6.91;55.90
76378;BME280;65200;49.500;8.654;2023-11-22T09:50:18;101613.75;;;6.40;57.84
76378;BME280;65200;49.500;8.654;2023-11-22T09:52:50;101621.56;;;6.32;56.45
76378;BME280;65200;49.500;8.654;2023-11-22T09:55:17;101618.75;;;6.03;56.36
76378;BME280;65200;49.500;8.654;2023-11-22T09:57:45;101621.81;;;6.08;58.15
76378;BME280;65200;49.500;8.654;2023-11-22T10:00:13;101624.38;;;6.10;58.84
76378;BME280;65200;49.500;8.654;2023-11-22T10:02:44;101636.91;;;5.67;58.97
76378;BME280;65200;49.500;8.654;2023-11-22T10:05:11;101636.16;;;5.76;59.10
76378;BME280;65200;49.500;8.654;2023-11-22T10:07:39;101643.28;;;5.75;57.18
76378;BME280;65200;49.500;8.654;2023-11-22T10:10:06;101633.25;;;5.47;58.20
76378;BME280;65200;49.500;8.654;2023-11-22T10:12:35;101631.38;;;5.58;57.89
76378;BME280;65200;49.500;8.654;2023-11-22T10:15:12;101629.00;;;5.55;58.53
76378;BME280;65200;49.500;8.654;2023-11-22T10:17:39;101626.84;;;5.49;57.61
76378;BME280;65200;49.500;8.654;2023-11-22T10:20:07;101631.00;;;5.63;58.18
76378;BME280;65200;49.500;8.654;2023-11-22T10:22:45;101635.91;;;5.47;57.71
76378;BME280;65200;49.500;8.654;2023-11-22T10:25:13;101643.34;;;5.64;57.24
76378;BME280;65200;49.500;8.654;2023-11-22T10:27:39;101639.75;;;5.86;58.08
76378;BME280;65200;49.500;8.654;2023-11-22T10:30:08;101641.31;;;5.88;57.79
76378;BME280;65200;49.500;8.654;2023-11-22T10:32:37;101643.69;;;5.71;58.25
76378;BME280;65200;49.500;8.654;2023-11-22T10:35:04;101649.03;;;5.91;58.35
76378;BME280;65200;49.500;8.654;2023-11-22T10:37:32;101666.97;;;6.10;57.92
76378;BME280;65200;49.500;8.654;2023-11-22T10:40:00;101663.69;;;6.27;58.23
76378;BME280;65200;49.500;8.654;2023-11-22T10:42:27;101668.03;;;6.48;56.45
76378;BME280;65200;49.500;8.654;2023-11-22T10:44:55;101664.22;;;6.41;58.21
76378;BME280;65200;49.500;8.654;2023-11-22T10:47:22;101668.13;;;6.37;57.48
76378;BME280;65200;49.500;8.654;2023-11-22T10:49:50;101676.97;;;6.47;56.29
76378;BME280;65200;49.500;8.654;2023-11-22T10:52:18;101676.88;;;6.79;57.16
76378;BME280;65200;49.500;8.654;2023-11-22T10:54:49;101668.50;;;6.93;57.33
76378;BME280;65200;49.500;8.654;2023-11-22T10:57:19;101664.22;;;7.11;54.60
76378;BME280;65200;49.500;8.654;2023-11-22T10:59:54;101659.59;;;7.23;56.30
76378;BME280;65200;49.500;8.654;2023-11-22T11:02:21;101661.19;;;7.25;56.32
76378;BME280;65200;49.500;8.654;2023-11-22T11:04:53;101672.53;;;7.37;53.83
76378;BME280;65200;49.500;8.654;2023-11-22T11:07:22;101677.75;;;7.38;53.95
76378;BME280;65200;49.500;8.654;2023-11-22T11:09:54;101687.31;;;7.50;53.84
76378;BME280;65200;49.500;8.654;2023-11-22T11:12:23;101690.25;;;7.57;55.09
76378;BME280;65200;49.500;8.654;2023-11-22T11:14:50;101692.81;;;7.96;55.40
76378;BME280;65200;49.500;8.654;2023-11-22T11:17:17;101700.56;;;7.90;54.61
76378;BME280;65200;49.500;8.654;2023-11-22T11:19:44;101688.88;;;7.81;52.31
76378;BME280;65200;49.500;8.654;2023-11-22T11:22:11;101690.59;;;7.92;51.94
76378;BME280;65200;49.500;8.654;2023-11-22T11:24:39;101688.88;;;7.72;52.64
76378;BME280;65200;49.500;8.654;2023-11-22T11:27:06;101681.88;;;7.80;52.07
76378;BME280;65200;49.500;8.654;2023-11-22T11:29:35;101695.34;;;7.88;55.26
76378;BME280;65200;49.500;8.654;2023-11-22T11:32:09;101692.53;;;8.09;52.71
76378;BME280;65200;49.500;8.654;2023-11-22T11:34:46;101696.19;;;7.89;51.85
76378;BME280;65200;49.500;8.654;2023-11-22T11:37:14;101700.97;;;8.23;52.33
76378;BME280;65200;49.500;8.654;2023-11-22T11:39:40;101703.19;;;8.38;52.11
76378;BME280;65200;49.500;8.654;2023-11-22T11:42:08;101702.09;;;8.21;53.75
76378;BME280;65200;49.500;8.654;2023-11-22T11:44:36;101701.66;;;7.87;51.28
76378;BME280;65200;49.500;8.654;2023-11-22T11:47:08;101701.50;;;7.70;53.59
76378;BME280;65200;49.500;8.654;2023-11-22T11:49:36;101712.47;;;7.57;54.48
76378;BME280;65200;49.500;8.654;2023-11-22T11:52:03;101718.06;;;7.45;55.10
76378;BME280;65200;49.500;8.654;2023-11-22T11:54:30;101721.66;;;7.34;54.81
76378;BME280;65200;49.500;8.654;2023-11-22T11:56:58;101723.28;;;7.16;54.80
76378;BME280;65200;49.500;8.654;2023-11-22T11:59:25;101726.09;;;7.15;56.25
76378;BME280;65200;49.500;8.654;2023-11-22T12:01:54;101731.28;;;7.16;54.80
76378;BME280;65200;49.500;8.654;2023-11-22T12:04:22;101732.03;;;7.28;54.39
76378;BME280;65200;49.500;8.654;2023-11-22T12:06:49;101737.19;;;7.10;54.94
76378;BME280;65200;49.500;8.654;2023-11-22T12:09:22;101731.50;;;7.43;53.13
76378;BME280;65200;49.500;8.654;2023-11-22T12:11:49;101721.69;;;7.44;53.48
76378;BME280;65200;49.500;8.654;2023-11-22T12:14:16;101726.94;;;7.64;54.34
76378;BME280;65200;49.500;8.654;2023-11-22T12:16:44;101715.28;;;7.65;51.96
76378;BME280;65200;49.500;8.654;2023-11-22T12:19:20;101705.03;;;7.99;52.66
76378;BME280;65200;49.500;8.654;2023-11-22T12:21:47;101709.66;;;8.45;51.04
76378;BME280;65200;49.500;8.654;2023-11-22T12:24:14;101713.88;;;8.38;49.34
76378;BME280;65200;49.500;8.654;2023-11-22T12:26:44;101710.63;;;8.53;52.22
76378;BME280;65200;49.500;8.654;2023-11-22T12:29:12;101695.19;;;8.84;49.23
76378;BME280;65200;49.500;8.654;2023-11-22T12:31:44;101687.31;;;8.82;49.42
76378;BME280;65200;49.500;8.654;2023-11-22T12:34:13;101686.03;;;8.50;49.74
76378;BME280;65200;49.500;8.654;2023-11-22T12:36:40;101681.72;;;8.39;49.93
76378;BME280;65200;49.500;8.654;2023-11-22T12:39:08;101674.97;;;8.25;51.20
76378;BME280;65200;49.500;8.654;2023-11-22T12:41:42;101668.31;;;8.49;50.82
76378;BME280;65200;49.500;8.654;2023-11-22T12:44:08;101669.69;;;8.53;50.34
76378;BME280;65200;49.500;8.654;2023-11-22T12:46:48;101666.06;;;8.44;47.87
76378;BME280;65200;49.500;8.654;2023-11-22T12:49:23;101680.03;;;8.09;51.10
76378;BME280;65200;49.500;8.654;2023-11-22T12:51:51;101677.25;;;7.92;50.82
76378;BME280;65200;49.500;8.654;2023-11-22T12:54:18;101684.09;;;7.94;51.94
76378;BME280;65200;49.500;8.654;2023-11-22T12:56:47;101683.41;;;7.92;51.19
76378;BME280;65200;49.500;8.654;2023-11-22T12:59:15;101680.72;;;8.02;52.48
76378;BME280;65200;49.500;8.654;2023-11-22T13:01:43;101687.63;;;8.23;53.58